createdAt,value
2018-11-12T00:02:56.882Z,82.30
2018-11-12T00:05:31.244Z,82.30
2018-11-12T00:08:05.460Z,82.30
2018-11-12T00:10:52.438Z,82.30
2018-11-12T00:13:26.993Z,82.30
2018-11-12T00:16:03.513Z,82.40
2018-11-12T00:18:40.681Z,82.50
2018-11-12T00:21:14.830Z,82.50
2018-11-12T00:23:48.848Z,82.80
2018-11-12T00:26:26.665Z,82.80
2018-11-12T00:29:05.250Z,82.80
2018-11-12T00:31:44.375Z,82.90
2018-11-12T00:34:18.729Z,82.90
2018-11-12T00:36:53.610Z,82.80
2018-11-12T00:39:27.616Z,82.90
2018-11-12T00:42:13.293Z,82.90
2018-11-12T00:44:53.018Z,82.90
2018-11-12T00:47:26.725Z,83.00
2018-11-12T00:50:07.114Z,83.00
2018-11-12T00:52:43.549Z,83.00
2018-11-12T00:55:19.155Z,83.10
2018-11-12T00:58:01.993Z,83.10
2018-11-12T01:00:36.702Z,83.10
2018-11-12T01:03:25.080Z,83.20
2018-11-12T01:06:05.655Z,84.00
2018-11-12T01:08:42.593Z,83.30
2018-11-12T01:11:18.196Z,83.40
2018-11-12T01:13:54.308Z,83.40
2018-11-12T01:16:33.745Z,83.50
2018-11-12T01:19:08.567Z,83.50
2018-11-12T01:21:43.520Z,83.70
2018-11-12T01:24:23.302Z,83.80
2018-11-12T01:27:01.609Z,83.70
2018-11-12T01:29:47.245Z,83.60
2018-11-12T01:32:32.370Z,83.60
2018-11-12T01:35:09.419Z,83.50
2018-11-12T01:37:54.090Z,83.50
2018-11-12T01:40:29.308Z,83.80
2018-11-12T01:43:05.241Z,84.10
2018-11-12T01:45:41.493Z,84.00
2018-11-12T01:48:21.170Z,83.90
2018-11-12T01:50:55.115Z,83.90
2018-11-12T01:53:33.693Z,84.00
2018-11-12T01:56:15.894Z,84.20
2018-11-12T01:58:51.057Z,84.90
2018-11-12T02:01:37.277Z,84.20
2018-11-12T02:04:13.605Z,84.30
2018-11-12T02:06:47.469Z,84.30
2018-11-12T02:09:25.335Z,84.40
2018-11-12T02:11:59.626Z,85.00
2018-11-12T02:14:34.401Z,84.30
2018-11-12T02:17:10.241Z,84.30
2018-11-12T02:19:46.169Z,84.30
2018-11-12T02:22:20.860Z,84.30
2018-11-12T02:24:57.234Z,84.30
2018-11-12T02:27:31.303Z,84.30
2018-11-12T02:30:15.831Z,84.40
2018-11-12T02:32:49.769Z,84.40
2018-11-12T02:35:25.381Z,84.40
2018-11-12T02:38:02.602Z,84.40
2018-11-12T02:40:36.886Z,84.50
2018-11-12T02:43:11.825Z,84.50
2018-11-12T02:45:52.821Z,84.50
2018-11-12T02:48:27.307Z,84.60
2018-11-12T02:51:09.018Z,84.60
2018-11-12T02:53:47.541Z,84.50
2018-11-12T02:56:23.573Z,84.60
2018-11-12T02:58:58.085Z,84.60
2018-11-12T03:01:38.520Z,84.70
2018-11-12T03:04:13.181Z,84.70
2018-11-12T03:06:47.253Z,84.80
2018-11-12T03:09:21.400Z,84.90
2018-11-12T03:11:55.673Z,84.90
2018-11-12T03:14:30.706Z,84.80
2018-11-12T03:17:04.872Z,84.80
2018-11-12T03:19:38.535Z,84.80
2018-11-12T03:22:12.971Z,84.80
2018-11-12T03:24:50.284Z,84.80
2018-11-12T03:27:24.011Z,84.80
2018-11-12T03:29:58.027Z,84.80
2018-11-12T03:32:32.562Z,84.80
2018-11-12T03:35:07.385Z,84.90
2018-11-12T03:37:42.784Z,84.80
2018-11-12T03:40:19.598Z,84.80
2018-11-12T03:42:53.107Z,84.80
2018-11-12T03:45:26.716Z,84.80
2018-11-12T03:48:04.665Z,84.80
2018-11-12T03:50:38.377Z,84.80
2018-11-12T03:53:12.407Z,84.80
2018-11-12T03:55:48.534Z,84.80
2018-11-12T03:58:22.603Z,84.80
2018-11-12T04:00:56.262Z,84.80
2018-11-12T04:03:30.070Z,84.80
2018-11-12T04:06:04.194Z,84.90
2018-11-12T04:08:42.680Z,84.90
2018-11-12T04:11:16.526Z,84.90
2018-11-12T04:13:56.212Z,84.90
2018-11-12T04:16:29.914Z,84.90
2018-11-12T04:19:04.517Z,85.00
2018-11-12T04:21:38.806Z,85.00
2018-11-12T04:24:17.566Z,85.10
2018-11-12T04:26:52.108Z,85.10
2018-11-12T04:29:26.612Z,85.10
2018-11-12T04:32:00.283Z,85.10
2018-11-12T04:34:33.942Z,85.10
2018-11-12T04:37:15.541Z,85.10
2018-11-12T04:39:49.566Z,85.20
2018-11-12T04:42:23.968Z,85.70
2018-11-12T04:45:02.071Z,85.10
2018-11-12T04:47:36.197Z,85.10
2018-11-12T04:50:12.480Z,85.20
2018-11-12T04:52:46.733Z,85.10
2018-11-12T04:55:22.048Z,85.20
2018-11-12T04:57:55.969Z,85.20
2018-11-12T05:00:30.155Z,85.20
2018-11-12T05:03:06.993Z,85.20
2018-11-12T05:05:42.016Z,85.20
2018-11-12T05:08:15.656Z,85.30
2018-11-12T05:10:50.160Z,85.30
2018-11-12T05:13:24.374Z,86.00
2018-11-12T05:15:57.925Z,85.30
2018-11-12T05:18:31.953Z,85.30
2018-11-12T05:21:06.025Z,85.30
2018-11-12T05:23:39.581Z,85.30
2018-11-12T05:26:14.121Z,85.20
2018-11-12T05:28:48.389Z,85.30
2018-11-12T05:31:25.006Z,85.30
2018-11-12T05:33:59.237Z,85.30
2018-11-12T05:36:33.543Z,85.30
2018-11-12T05:39:09.002Z,85.30
2018-11-12T05:41:42.526Z,84.80
2018-11-12T05:44:16.539Z,85.30
2018-11-12T05:46:50.664Z,85.30
2018-11-12T05:49:25.022Z,85.30
2018-11-12T05:51:59.737Z,85.30
2018-11-12T05:54:33.654Z,85.30
2018-11-12T05:57:10.148Z,85.20
2018-11-12T05:59:44.436Z,86.00
2018-11-12T06:02:18.240Z,85.40
2018-11-12T06:04:52.111Z,85.40
2018-11-12T06:07:25.777Z,85.40
2018-11-12T06:09:59.459Z,85.50
2018-11-12T06:12:33.366Z,85.50
2018-11-12T06:15:08.105Z,85.40
2018-11-12T06:17:42.606Z,85.50
2018-11-12T06:20:18.847Z,85.60
2018-11-12T06:22:54.109Z,85.60
2018-11-12T06:25:29.181Z,85.60
2018-11-12T06:28:03.714Z,85.60
2018-11-12T06:30:38.384Z,85.60
2018-11-12T06:33:12.685Z,85.60
2018-11-12T06:35:46.489Z,85.60
2018-11-12T06:38:21.334Z,85.60
2018-11-12T06:40:56.116Z,85.60
2018-11-12T06:43:30.028Z,85.80
2018-11-12T06:46:04.267Z,85.80
2018-11-12T06:48:39.098Z,85.70
2018-11-12T06:51:13.222Z,85.60
2018-11-12T06:53:47.855Z,85.70
2018-11-12T06:56:22.121Z,85.80
2018-11-12T06:58:56.966Z,85.80
2018-11-12T07:01:31.490Z,85.80
2018-11-12T07:04:05.291Z,85.90
2018-11-12T07:06:40.076Z,86.00
2018-11-12T07:09:14.105Z,86.00
2018-11-12T07:11:48.417Z,86.00
2018-11-12T07:14:24.580Z,85.90
2018-11-12T07:16:58.793Z,85.90
2018-11-12T07:19:32.633Z,86.00
2018-11-12T07:22:07.139Z,86.10
2018-11-12T07:24:40.921Z,86.00
2018-11-12T07:27:14.830Z,86.20
2018-11-12T07:29:49.199Z,86.20
2018-11-12T07:32:23.529Z,86.20
2018-11-12T07:34:57.882Z,86.20
2018-11-12T07:37:32.245Z,86.30
2018-11-12T07:40:07.285Z,86.40
2018-11-12T07:42:41.773Z,86.30
2018-11-12T07:45:23.834Z,86.30
2018-11-12T07:47:57.967Z,86.40
2018-11-12T07:50:32.031Z,86.40
2018-11-12T07:53:16.814Z,86.50
2018-11-12T07:55:50.711Z,86.40
2018-11-12T07:58:24.495Z,86.40
2018-11-12T08:00:58.917Z,86.40
2018-11-12T08:03:33.293Z,86.40
2018-11-12T08:06:06.958Z,86.40
2018-11-12T08:08:43.499Z,86.40
2018-11-12T08:11:17.486Z,86.40
2018-11-12T08:13:51.567Z,86.60
2018-11-12T08:16:25.281Z,86.50
2018-11-12T08:19:01.225Z,86.50
2018-11-12T08:21:35.240Z,86.60
2018-11-12T08:24:09.000Z,86.60
2018-11-12T08:26:42.666Z,86.50
2018-11-12T08:29:16.176Z,86.50
2018-11-12T08:31:50.070Z,86.50
2018-11-12T08:34:24.302Z,86.50
2018-11-12T08:37:01.174Z,86.50
2018-11-12T08:39:34.880Z,86.50
2018-11-12T08:42:08.889Z,86.60
2018-11-12T08:44:47.693Z,86.60
2018-11-12T08:52:44.614Z,86.80
2018-11-12T08:55:22.146Z,87.40
2018-11-12T08:57:57.155Z,86.80
2018-11-12T09:00:35.250Z,86.90
2018-11-12T09:03:08.811Z,86.90
2018-11-12T09:05:42.777Z,86.70
2018-11-12T09:08:17.568Z,86.80
2018-11-12T09:10:56.030Z,86.80
2018-11-12T09:13:35.885Z,86.80
2018-11-12T09:16:14.138Z,86.80
2018-11-12T09:18:48.389Z,86.90
2018-11-12T09:21:22.387Z,86.90
2018-11-12T09:23:58.302Z,87.50
2018-11-12T09:26:32.041Z,86.80
2018-11-12T09:29:05.733Z,86.80
2018-11-12T09:31:40.173Z,86.70
2018-11-12T09:34:13.989Z,86.80
2018-11-12T09:36:47.971Z,86.80
2018-11-12T09:39:22.093Z,86.80
2018-11-12T09:41:55.890Z,86.80
2018-11-12T09:44:30.273Z,86.80
2018-11-12T09:47:04.305Z,86.80
2018-11-12T09:49:38.325Z,86.80
2018-11-12T09:52:12.181Z,86.90
2018-11-12T09:54:46.560Z,86.80
2018-11-12T09:57:20.494Z,86.80
2018-11-12T09:59:54.161Z,86.80
2018-11-12T10:02:28.911Z,86.80
2018-11-12T10:05:04.340Z,86.70
2018-11-12T10:07:38.892Z,86.80
2018-11-12T10:10:30.503Z,87.50
2018-11-12T10:13:04.867Z,86.80
2018-11-12T10:15:40.485Z,86.90
2018-11-12T10:20:45.113Z,86.80
2018-11-12T10:23:19.614Z,86.80
2018-11-12T10:25:53.171Z,86.80
2018-11-12T10:28:27.539Z,86.80
2018-11-12T10:31:01.814Z,86.80
2018-11-12T10:33:36.047Z,86.90
2018-11-12T10:36:10.024Z,86.80
2018-11-12T10:38:44.028Z,86.90
2018-11-12T10:41:17.968Z,86.90
2018-11-12T10:43:52.194Z,86.90
2018-11-12T10:46:26.253Z,86.90
2018-11-12T10:49:00.071Z,86.90
2018-11-12T10:51:34.340Z,86.90
2018-11-12T10:54:08.714Z,86.90
2018-11-12T10:56:42.490Z,86.90
2018-11-12T10:59:16.393Z,87.00
2018-11-12T11:02:56.905Z,86.90
2018-11-12T11:05:31.029Z,86.90
2018-11-12T11:08:04.760Z,86.80
2018-11-12T11:10:38.877Z,86.70
2018-11-12T11:13:13.049Z,86.80
2018-11-12T11:15:47.165Z,87.60
2018-11-12T11:18:21.397Z,87.00
2018-11-12T11:20:55.377Z,87.00
2018-11-12T11:23:29.869Z,86.90
2018-11-12T11:26:03.531Z,87.00
2018-11-12T11:28:37.230Z,87.00
2018-11-12T11:31:10.996Z,86.90
2018-11-12T11:33:45.465Z,86.90
2018-11-12T11:36:19.474Z,86.90
2018-11-12T11:38:53.572Z,86.80
2018-11-12T11:41:27.680Z,86.90
2018-11-12T11:44:02.066Z,86.90
2018-11-12T11:46:36.123Z,87.00
2018-11-12T11:49:09.917Z,87.10
2018-11-12T11:51:44.326Z,87.10
2018-11-12T11:54:18.035Z,87.00
2018-11-12T11:56:52.084Z,86.80
2018-11-12T11:59:26.206Z,86.70
2018-11-12T12:02:00.776Z,86.70
2018-11-12T12:04:34.369Z,86.70
2018-11-12T12:07:08.275Z,86.80
2018-11-12T12:09:41.887Z,86.80
2018-11-12T12:12:16.095Z,86.90
2018-11-12T12:14:49.805Z,87.00
2018-11-12T12:17:23.518Z,86.90
2018-11-12T12:19:57.945Z,86.90
2018-11-12T12:22:32.018Z,86.90
2018-11-12T12:25:07.090Z,86.90
2018-11-12T12:27:41.242Z,86.80
2018-11-12T12:30:20.060Z,86.80
2018-11-12T12:32:55.024Z,86.80
2018-11-12T12:35:29.959Z,86.50
2018-11-12T12:38:04.378Z,86.60
2018-11-12T12:40:38.211Z,86.70
2018-11-12T12:43:12.078Z,86.70
2018-11-12T12:45:46.146Z,86.80
2018-11-12T12:48:19.808Z,86.70
2018-11-12T12:50:54.007Z,86.80
2018-11-12T12:53:27.888Z,86.80
2018-11-12T12:56:01.757Z,86.60
2018-11-12T12:58:35.773Z,86.70
2018-11-12T13:01:10.168Z,86.80
2018-11-12T13:03:44.584Z,86.80
2018-11-12T13:06:18.653Z,86.60
2018-11-12T13:08:52.638Z,86.50
2018-11-12T13:11:26.835Z,86.50
2018-11-12T13:14:00.989Z,86.70
2018-11-12T13:16:35.013Z,86.80
2018-11-12T13:19:08.733Z,86.90
2018-11-12T13:21:42.289Z,86.90
2018-11-12T13:24:16.117Z,86.80
2018-11-12T13:26:50.250Z,86.70
2018-11-12T13:29:24.125Z,86.80
2018-11-12T13:31:58.009Z,86.80
2018-11-12T13:34:31.837Z,86.70
2018-11-12T13:37:06.109Z,86.50
2018-11-12T13:39:40.053Z,87.30
2018-11-12T13:42:13.622Z,86.70
2018-11-12T13:44:47.746Z,86.70
2018-11-12T13:47:21.641Z,86.70
2018-11-12T13:49:55.316Z,86.70
2018-11-12T13:52:30.016Z,86.60
2018-11-12T13:55:05.916Z,86.50
2018-11-12T13:57:39.661Z,86.50
2018-11-12T14:00:17.656Z,86.70
2018-11-12T14:02:52.055Z,86.80
2018-11-12T14:05:26.337Z,86.80
2018-11-12T14:08:00.542Z,86.90
2018-11-12T14:10:34.246Z,86.90
2018-11-12T14:13:08.548Z,87.00
2018-11-12T14:15:42.513Z,86.90
2018-11-12T14:18:16.381Z,86.90
2018-11-12T14:20:50.381Z,86.70
2018-11-12T14:23:24.200Z,87.20
2018-11-12T14:25:58.376Z,86.70
2018-11-12T14:28:32.965Z,86.70
2018-11-12T14:31:07.388Z,86.50
2018-11-12T14:33:41.326Z,86.50
2018-11-12T14:36:15.409Z,86.60
2018-11-12T14:38:49.285Z,86.60
2018-11-12T14:41:22.888Z,86.60
2018-11-12T14:43:56.965Z,86.50
2018-11-12T14:46:31.289Z,87.20
2018-11-12T14:49:05.558Z,86.50
2018-11-12T14:51:39.122Z,86.40
2018-11-12T14:54:13.622Z,86.40
2018-11-12T14:56:47.474Z,86.40
2018-11-12T14:59:21.202Z,86.40
2018-11-12T15:01:55.371Z,86.40
2018-11-12T15:04:29.581Z,86.30
2018-11-12T15:07:03.663Z,86.40
2018-11-12T15:09:37.703Z,86.50
2018-11-12T15:12:11.677Z,86.50
2018-11-12T15:14:45.993Z,86.50
2018-11-12T15:17:19.891Z,86.50
2018-11-12T15:19:53.637Z,86.50
2018-11-12T15:22:27.645Z,86.30
2018-11-12T15:25:01.702Z,86.20
2018-11-12T15:27:36.101Z,86.30
2018-11-12T15:30:12.464Z,86.30
2018-11-12T15:32:47.992Z,86.40
2018-11-12T15:35:21.858Z,86.50
2018-11-12T15:37:55.954Z,86.50
2018-11-12T15:40:30.185Z,86.40
2018-11-12T15:43:04.241Z,86.40
2018-11-12T15:45:37.882Z,86.30
2018-11-12T15:48:11.794Z,86.30
2018-11-12T15:50:46.015Z,86.30
2018-11-12T15:53:19.985Z,86.40
2018-11-12T15:55:54.600Z,86.50
2018-11-12T15:58:29.029Z,86.30
2018-11-12T16:01:03.397Z,86.40
2018-11-12T16:03:37.667Z,86.30
2018-11-12T16:06:11.864Z,86.60
2018-11-12T16:08:45.850Z,86.50
2018-11-12T16:11:19.848Z,86.40
2018-11-12T16:13:53.900Z,86.40
2018-11-12T16:16:27.757Z,86.40
2018-11-12T16:19:01.676Z,86.40
2018-11-12T16:21:35.604Z,86.30
2018-11-12T16:24:09.237Z,86.40
2018-11-12T16:26:43.495Z,86.50
2018-11-12T16:29:17.417Z,86.50
2018-11-12T16:31:51.633Z,86.30
2018-11-12T16:34:25.967Z,86.30
2018-11-12T16:36:59.649Z,86.30
2018-11-12T16:39:33.870Z,86.30
2018-11-12T16:42:08.154Z,86.40
2018-11-12T16:44:41.985Z,86.40
2018-11-12T16:47:16.207Z,86.50
2018-11-12T16:49:50.007Z,86.40
2018-11-12T16:52:23.693Z,86.40
2018-11-12T16:54:57.368Z,86.80
2018-11-12T16:57:31.428Z,86.20
2018-11-12T17:00:07.401Z,86.20
2018-11-12T17:02:41.886Z,86.20
2018-11-12T17:05:17.325Z,86.20
2018-11-12T17:07:51.041Z,86.30
2018-11-12T17:10:26.225Z,86.20
2018-11-12T17:13:00.302Z,86.20
2018-11-12T17:15:34.519Z,86.30
2018-11-12T17:18:08.910Z,86.20
2018-11-12T17:20:42.641Z,86.10
2018-11-12T17:23:16.898Z,86.10
2018-11-12T17:25:52.269Z,86.00
2018-11-12T17:28:26.181Z,86.20
2018-11-12T17:31:01.037Z,86.10
2018-11-12T17:33:36.497Z,86.00
2018-11-12T17:36:10.413Z,85.90
2018-11-12T17:38:44.197Z,85.90
2018-11-12T17:41:18.096Z,85.80
2018-11-12T17:43:52.413Z,85.70
2018-11-12T17:46:26.514Z,85.70
2018-11-12T17:49:01.048Z,85.80
2018-11-12T17:51:35.467Z,85.80
2018-11-12T17:54:09.956Z,85.60
2018-11-12T17:56:43.780Z,85.40
2018-11-12T17:59:17.805Z,85.50
2018-11-12T18:01:52.195Z,85.50
2018-11-12T18:04:26.537Z,85.50
2018-11-12T18:07:01.179Z,85.70
2018-11-12T18:09:35.817Z,85.60
2018-11-12T18:12:10.259Z,85.50
2018-11-12T18:14:43.941Z,85.50
2018-11-12T18:17:17.721Z,85.60
2018-11-12T18:19:51.665Z,85.70
2018-11-12T18:22:25.629Z,85.70
2018-11-12T18:24:59.876Z,85.80
2018-11-12T18:27:33.856Z,85.70
2018-11-12T18:30:11.664Z,85.70
2018-11-12T18:32:46.509Z,85.70
2018-11-12T18:35:20.349Z,85.70
2018-11-12T18:37:55.138Z,85.80
2018-11-12T18:40:29.427Z,85.80
2018-11-12T18:43:04.666Z,85.90
2018-11-12T18:45:39.021Z,85.80
2018-11-12T18:48:13.326Z,85.70
2018-11-12T18:50:47.027Z,85.80
2018-11-12T18:53:20.937Z,85.90
2018-11-12T18:55:55.085Z,85.90
2018-11-12T18:58:29.515Z,85.90
2018-11-12T19:01:03.953Z,85.90
2018-11-12T19:03:38.224Z,85.90
2018-11-12T19:06:12.479Z,85.80
2018-11-12T19:08:46.425Z,86.50
2018-11-12T19:11:20.563Z,85.90
2018-11-12T19:13:54.553Z,86.00
2018-11-12T19:16:28.444Z,86.10
2018-11-12T19:19:02.599Z,86.10
2018-11-12T19:21:36.388Z,86.00
2018-11-12T19:24:10.598Z,85.80
2018-11-12T19:26:45.057Z,85.90
2018-11-12T19:29:19.431Z,85.90
2018-11-12T19:31:53.253Z,85.90
2018-11-12T19:34:27.294Z,85.80
2018-11-12T19:37:01.191Z,85.80
2018-11-12T19:39:34.994Z,85.60
2018-11-12T19:42:09.128Z,85.50
2018-11-12T19:44:42.767Z,85.50
2018-11-12T19:47:16.957Z,85.50
2018-11-12T19:49:51.365Z,85.40
2018-11-12T19:52:25.066Z,85.40
2018-11-12T19:54:59.442Z,85.40
2018-11-12T19:57:33.669Z,85.40
2018-11-12T20:00:11.315Z,85.40
2018-11-12T20:02:46.538Z,85.60
2018-11-12T20:05:20.031Z,85.60
2018-11-12T20:07:54.359Z,85.50
2018-11-12T20:10:28.371Z,85.60
2018-11-12T20:13:02.264Z,85.70
2018-11-12T20:15:36.282Z,85.80
2018-11-12T20:18:10.260Z,85.80
2018-11-12T20:20:44.042Z,85.80
2018-11-12T20:23:17.860Z,85.70
2018-11-12T20:25:52.438Z,85.80
2018-11-12T20:28:27.122Z,85.80
2018-11-12T20:31:01.337Z,85.70
2018-11-12T20:33:35.470Z,85.70
2018-11-12T20:36:09.470Z,85.90
2018-11-12T20:38:54.030Z,85.80
2018-11-12T20:41:28.044Z,85.90
2018-11-12T20:44:02.534Z,85.80
2018-11-12T20:46:36.566Z,85.80
2018-11-12T20:49:10.617Z,85.80
2018-11-12T20:51:45.080Z,85.80
2018-11-12T20:54:19.359Z,85.80
2018-11-12T20:56:53.277Z,85.70
2018-11-12T20:59:27.266Z,85.70
2018-11-12T21:02:00.905Z,85.80
2018-11-12T21:04:34.697Z,85.80
2018-11-12T21:07:09.181Z,85.80
2018-11-12T21:09:42.938Z,85.80
2018-11-12T21:12:17.359Z,85.70
2018-11-12T21:14:51.222Z,85.70
2018-11-12T21:17:25.781Z,85.70
2018-11-12T21:20:00.024Z,85.70
2018-11-12T21:22:33.909Z,85.70
2018-11-12T21:25:09.530Z,85.70
2018-11-12T21:27:43.461Z,85.70
2018-11-12T21:30:26.330Z,85.60
2018-11-12T21:33:00.559Z,85.60
2018-11-12T21:35:34.126Z,85.50
2018-11-12T21:38:09.257Z,85.50
2018-11-12T21:40:43.359Z,85.50
2018-11-12T21:43:17.960Z,85.30
2018-11-12T21:45:51.850Z,85.40
2018-11-12T21:48:26.021Z,85.40
2018-11-12T21:51:00.322Z,85.40
2018-11-12T21:53:34.534Z,85.40
2018-11-12T21:56:08.558Z,85.40
2018-11-12T21:58:43.123Z,85.40
2018-11-12T22:01:17.645Z,85.30
2018-11-12T22:03:51.469Z,85.30
2018-11-12T22:06:25.665Z,85.30
2018-11-12T22:08:59.949Z,85.30
2018-11-12T22:11:33.929Z,85.30
2018-11-12T22:14:08.153Z,85.30
2018-11-12T22:16:41.946Z,85.30
2018-11-12T22:19:15.896Z,85.20
2018-11-12T22:21:49.849Z,85.20
2018-11-12T22:24:23.553Z,85.30
2018-11-12T22:26:57.297Z,85.40
2018-11-12T22:29:31.204Z,85.40
2018-11-12T22:32:05.138Z,85.60
2018-11-12T22:34:39.237Z,85.60
2018-11-12T22:37:13.422Z,85.60
2018-11-12T22:39:47.629Z,85.60
2018-11-12T22:42:22.093Z,85.50
2018-11-12T22:44:56.825Z,85.60
2018-11-12T22:47:30.717Z,85.50
2018-11-12T22:50:06.089Z,85.30
2018-11-12T22:52:40.518Z,85.30
2018-11-12T22:55:15.994Z,85.30
2018-11-12T22:57:49.851Z,85.20
2018-11-12T23:00:29.913Z,85.10
2018-11-12T23:03:04.207Z,85.00
2018-11-12T23:05:37.869Z,85.00
2018-11-12T23:08:11.794Z,84.90
2018-11-12T23:10:45.654Z,84.70
2018-11-12T23:13:19.787Z,84.60
2018-11-12T23:15:53.922Z,84.60
2018-11-12T23:18:28.238Z,85.50
2018-11-12T23:21:02.048Z,85.40
2018-11-12T23:23:35.766Z,85.20
2018-11-12T23:26:10.167Z,85.00
2018-11-12T23:28:43.996Z,84.80
2018-11-12T23:31:17.965Z,84.80
2018-11-12T23:33:52.081Z,84.70
2018-11-12T23:36:26.024Z,84.70
2018-11-12T23:39:00.254Z,84.70
2018-11-12T23:41:34.457Z,84.80
2018-11-12T23:44:08.349Z,84.80
2018-11-12T23:46:42.572Z,85.00
2018-11-12T23:49:16.622Z,85.20
2018-11-12T23:51:51.480Z,85.30
2018-11-12T23:54:25.940Z,85.30
2018-11-12T23:56:59.781Z,85.50
2018-11-12T23:59:34.021Z,85.70
